Time;durP1;ratioP1;P1;durP2;ratioP2;P2;SDS_P1;SDS_P2;PMS_P1;PMS_P2;Temp;Humidity;BMP_temperature;BMP_pressure;BME280_temperature;BME280_humidity;BME280_pressure;Samples;Min_cycle;Max_cycle;Signal;HPM_P1;HPM_P2
2022/09/11 00:01:08;;;;;;;58.83;19.50;;;;;;;;;;4972504;28;20019;-58
2022/09/11 00:03:36;;;;;;;60.78;21.10;;;;;;;;;;4972540;28;20035;-55
2022/09/11 00:06:04;;;;;;;52.22;20.80;;;;;;;;;;4970663;28;20023;-55
2022/09/11 00:08:31;;;;;;;59.55;22.48;;;;;;;;;;4973008;28;20058;-57
2022/09/11 00:11:24;;;;;;;67.47;23.90;;;;;;;;;;4973723;28;20102;-56
2022/09/11 00:13:50;;;;;;;;;;;;;;;;;;4970974;28;20509;-57
2022/09/11 00:16:22;;;;;;;59.35;21.13;;;;;;;;;;4973495;28;20280;-57
2022/09/11 00:18:53;;;;;;;68.67;21.67;;;;;;;;;;4972572;28;20134;-58
2022/09/11 00:21:20;;;;;;;56.97;20.50;;;;;;;;;;4971445;28;20266;-56
2022/09/11 00:23:50;;;;;;;62.15;20.90;;;;;;;;;;4969092;28;20034;-56
2022/09/11 00:26:18;;;;;;;56.45;20.42;;;;;;;;;;4972279;28;20070;-56
2022/09/11 00:28:45;;;;;;;56.47;19.92;;;;;;;;;;4972720;28;20080;-56
2022/09/11 00:31:14;;;;;;;53.03;20.13;;;;;;;;;;4971861;28;20094;-59
2022/09/11 00:33:41;;;;;;;50.40;18.92;;;;;;;;;;4971578;28;20393;-51
2022/09/11 00:36:12;;;;;;;51.42;20.35;;;;;;;;;;4972618;28;20038;-55
2022/09/11 00:38:39;;;;;;;62.90;20.52;;;;;;;;;;4961026;28;20059;-56
2022/09/11 00:41:26;;;;;;;64.63;20.63;;;;;;;;;;4969122;28;20034;-53
2022/09/11 00:44:04;;;;;;;65.63;20.65;;;;;;;;;;4968153;28;20492;-52
2022/09/11 00:46:52;;;;;;;59.40;19.00;;;;;;;;;;4971803;28;20388;-52
2022/09/11 00:49:37;;;;;;;60.83;19.83;;;;;;;;;;4975025;28;20031;-51
2022/09/11 00:52:09;;;;;;;62.90;19.92;;;;;;;;;;4975129;28;20118;-57
2022/09/11 00:54:48;;;;;;;55.10;19.45;;;;;;;;;;4973163;28;20038;-52
2022/09/11 00:57:16;;;;;;;65.88;20.60;;;;;;;;;;4968332;28;20066;-51
2022/09/11 00:59:44;;;;;;;62.10;21.20;;;;;;;;;;4974483;28;20765;-50
2022/09/11 01:02:12;;;;;;;67.65;20.33;;;;;;;;;;4974170;28;20023;-49
2022/09/11 01:04:39;;;;;;;69.28;21.58;;;;;;;;;;4974359;28;20035;-54
2022/09/11 01:07:06;;;;;;;64.57;22.27;;;;;;;;;;4972959;28;20428;-55
2022/09/11 01:09:33;;;;;;;67.03;22.38;;;;;;;;;;4973884;28;20043;-55
2022/09/11 01:12:00;;;;;;;71.45;24.08;;;;;;;;;;4956279;28;20073;-56
2022/09/11 01:14:41;;;;;;;70.35;25.23;;;;;;;;;;4973978;28;20027;-56
2022/09/11 01:17:11;;;;;;;84.38;29.85;;;;;;;;;;4973778;28;20551;-49
2022/09/11 01:19:41;;;;;;;95.03;39.65;;;;;;;;;;4972441;28;20066;-52
2022/09/11 01:22:09;;;;;;;85.78;38.42;;;;;;;;;;4973688;28;20734;-55
2022/09/11 01:24:55;;;;;;;121.70;50.03;;;;;;;;;;4972091;28;20074;-53
2022/09/11 01:27:31;;;;;;;104.45;47.28;;;;;;;;;;4973690;28;20493;-52
2022/09/11 01:30:02;;;;;;;110.60;50.03;;;;;;;;;;4973175;28;20031;-54
2022/09/11 01:32:38;;;;;;;113.37;59.87;;;;;;;;;;4973050;28;20480;-56
2022/09/11 01:35:24;;;;;;;111.70;66.50;;;;;;;;;;4972674;28;20121;-50
2022/09/11 01:37:57;;;;;;;118.82;69.13;;;;;;;;;;4974047;28;20035;-51
2022/09/11 01:40:35;;;;;;;132.80;73.28;;;;;;;;;;4974287;28;20031;-50
2022/09/11 01:43:06;;;;;;;114.35;66.47;;;;;;;;;;4974312;28;20039;-52
2022/09/11 01:45:36;;;;;;;111.43;69.15;;;;;;;;;;4974445;28;20113;-53
2022/09/11 01:48:03;;;;;;;114.65;69.85;;;;;;;;;;4973744;28;20046;-50
2022/09/11 01:50:31;;;;;;;123.63;67.28;;;;;;;;;;4973636;28;20035;-53
2022/09/11 01:53:00;;;;;;;124.03;70.75;;;;;;;;;;4972975;28;20049;-50
2022/09/11 01:55:37;;;;;;;125.80;74.10;;;;;;;;;;4974015;28;20030;-51
2022/09/11 01:58:09;;;;;;;126.50;72.32;;;;;;;;;;4974238;28;20778;-56
2022/09/11 02:00:36;;;;;;;;;;;;;;;;;;4974470;28;20043;-54
2022/09/11 02:03:09;;;;;;;124.35;68.68;;;;;;;;;;4972330;28;19942;-52
2022/09/11 02:05:40;;;;;;;117.43;69.60;;;;;;;;;;4973975;28;20046;-53
2022/09/11 02:08:20;;;;;;;115.80;70.13;;;;;;;;;;4973497;28;20054;-54
2022/09/11 02:10:53;;;;;;;108.65;67.22;;;;;;;;;;4973884;28;20034;-54
2022/09/11 02:13:31;;;;;;;119.68;66.53;;;;;;;;;;4973633;28;20049;-53
2022/09/11 02:16:02;;;;;;;112.22;66.85;;;;;;;;;;4973695;28;20230;-54
2022/09/11 02:18:34;;;;;;;115.65;66.18;;;;;;;;;;4970673;28;20026;-54
2022/09/11 02:21:01;;;;;;;107.10;66.65;;;;;;;;;;4970417;28;20030;-55
2022/09/11 02:23:28;;;;;;;110.38;65.00;;;;;;;;;;4971740;28;20444;-54
2022/09/11 02:25:55;;;;;;;112.63;63.17;;;;;;;;;;4973082;28;20488;-52
2022/09/11 02:28:22;;;;;;;113.28;63.22;;;;;;;;;;4970801;28;20082;-57
2022/09/11 02:30:49;;;;;;;97.82;61.00;;;;;;;;;;4973520;28;20081;-53
2022/09/11 02:33:30;;;;;;;102.30;59.13;;;;;;;;;;4973277;28;20438;-57
2022/09/11 02:36:02;;;;;;;102.03;60.53;;;;;;;;;;4972093;28;20038;-53
2022/09/11 02:38:32;;;;;;;98.78;60.25;;;;;;;;;;4973672;28;20488;-55
2022/09/11 02:41:08;;;;;;;100.35;59.10;;;;;;;;;;4973364;28;20485;-56
2022/09/11 02:43:41;;;;;;;96.65;57.80;;;;;;;;;;4974208;28;20035;-55
2022/09/11 02:46:20;;;;;;;88.53;57.28;;;;;;;;;;4972769;28;20096;-51
2022/09/11 02:48:50;;;;;;;89.82;55.22;;;;;;;;;;4969732;28;20058;-54
2022/09/11 02:51:27;;;;;;;92.47;54.38;;;;;;;;;;4969762;28;20027;-57
2022/09/11 02:54:01;;;;;;;87.07;53.22;;;;;;;;;;4972795;28;20054;-49
2022/09/11 02:56:43;;;;;;;85.60;52.67;;;;;;;;;;4973443;28;20038;-55
2022/09/11 02:59:16;;;;;;;83.63;52.47;;;;;;;;;;4972993;28;20485;-51
2022/09/11 03:02:01;;;;;;;80.30;50.60;;;;;;;;;;4972990;28;20066;-55
2022/09/11 03:04:28;;;;;;;83.40;50.13;;;;;;;;;;4954251;28;20034;-58
2022/09/11 03:06:55;;;;;;;76.50;46.90;;;;;;;;;;4972201;28;20022;-55
2022/09/11 03:09:22;;;;;;;73.25;47.50;;;;;;;;;;4970302;28;20122;-54
2022/09/11 03:11:49;;;;;;;83.07;46.75;;;;;;;;;;4955333;28;20432;-55
2022/09/11 03:14:16;;;;;;;72.32;46.42;;;;;;;;;;4973420;28;20058;-55
2022/09/11 03:16:44;;;;;;;73.55;44.63;;;;;;;;;;4973342;28;20031;-56
2022/09/11 03:19:11;;;;;;;78.00;44.08;;;;;;;;;;4973095;28;20030;-56
2022/09/11 03:21:39;;;;;;;66.65;43.45;;;;;;;;;;4973442;28;20033;-55
2022/09/11 03:24:08;;;;;;;70.35;43.47;;;;;;;;;;4973189;28;20039;-56
2022/09/11 03:26:36;;;;;;;64.93;41.45;;;;;;;;;;4972569;28;20039;-54
2022/09/11 03:29:03;;;;;;;63.25;42.30;;;;;;;;;;4973744;28;20547;-56
2022/09/11 03:31:30;;;;;;;62.92;39.47;;;;;;;;;;4956456;28;20026;-53
2022/09/11 03:33:57;;;;;;;63.22;39.58;;;;;;;;;;4954395;28;20043;-59
2022/09/11 03:36:24;;;;;;;58.35;37.38;;;;;;;;;;4967677;28;20020;-53
2022/09/11 03:38:52;;;;;;;60.20;37.80;;;;;;;;;;4966336;28;20031;-52
2022/09/11 03:41:19;;;;;;;61.67;37.03;;;;;;;;;;4955424;28;20031;-54
2022/09/11 03:43:46;;;;;;;55.30;36.20;;;;;;;;;;4969688;28;20520;-55
2022/09/11 03:46:13;;;;;;;62.42;35.97;;;;;;;;;;4972158;28;20090;-53
2022/09/11 03:48:40;;;;;;;49.75;33.63;;;;;;;;;;4955195;28;20031;-49
2022/09/11 03:51:07;;;;;;;48.28;32.65;;;;;;;;;;4972634;28;20116;-49
2022/09/11 03:53:34;;;;;;;57.58;34.25;;;;;;;;;;4972060;28;20038;-51
2022/09/11 03:56:05;;;;;;;51.72;32.05;;;;;;;;;;4972748;28;20400;-54
2022/09/11 03:58:32;;;;;;;44.25;29.67;;;;;;;;;;4972755;28;20049;-55
2022/09/11 04:00:59;;;;;;;47.25;29.92;;;;;;;;;;4970980;28;20033;-56
2022/09/11 04:03:26;;;;;;;48.92;30.15;;;;;;;;;;4973388;28;20416;-56
2022/09/11 04:05:58;;;;;;;46.40;28.58;;;;;;;;;;4973280;28;20413;-56
2022/09/11 04:08:25;;;;;;;43.65;28.33;;;;;;;;;;4972927;28;20043;-54
2022/09/11 04:10:59;;;;;;;43.53;28.15;;;;;;;;;;4973629;28;20038;-50
2022/09/11 04:13:30;;;;;;;44.28;27.52;;;;;;;;;;4973580;28;20536;-54
2022/09/11 04:16:01;;;;;;;41.40;26.15;;;;;;;;;;4973622;28;20027;-54
2022/09/11 04:18:29;;;;;;;44.23;25.87;;;;;;;;;;4986821;28;20066;-52
2022/09/11 04:20:56;;;;;;;44.35;25.88;;;;;;;;;;4971695;28;20042;-52
2022/09/11 04:23:24;;;;;;;41.55;24.90;;;;;;;;;;4974144;28;20026;-57
2022/09/11 04:25:52;;;;;;;43.80;24.73;;;;;;;;;;4976184;28;20030;-50
2022/09/11 04:28:19;;;;;;;40.35;24.38;;;;;;;;;;4975891;28;20491;-47
2022/09/11 04:30:46;;;;;;;35.95;23.15;;;;;;;;;;4976011;28;20031;-48
2022/09/11 04:33:12;;;;;;;41.05;22.92;;;;;;;;;;4976163;28;20601;-48
2022/09/11 04:35:40;;;;;;;34.78;21.63;;;;;;;;;;4974457;28;20031;-48
2022/09/11 04:38:07;;;;;;;36.38;21.98;;;;;;;;;;4973257;28;20028;-47
2022/09/11 04:40:35;;;;;;;31.83;21.33;;;;;;;;;;4975995;28;20026;-48
2022/09/11 04:43:02;;;;;;;33.65;20.85;;;;;;;;;;4975862;28;20118;-46
2022/09/11 04:45:32;;;;;;;37.10;20.60;;;;;;;;;;4975929;28;20023;-50
2022/09/11 04:48:01;;;;;;;32.45;19.95;;;;;;;;;;4975820;28;20027;-47
2022/09/11 04:50:29;;;;;;;31.90;19.40;;;;;;;;;;4972406;28;20026;-47
2022/09/11 04:52:57;;;;;;;31.23;19.58;;;;;;;;;;4975682;28;20042;-47
2022/09/11 04:55:33;;;;;;;37.90;20.13;;;;;;;;;;4975600;28;20031;-53
2022/09/11 04:58:13;;;;;;;31.35;18.15;;;;;;;;;;4958294;28;20433;-53
2022/09/11 05:00:40;;;;;;;28.30;18.00;;;;;;;;;;4974875;28;20026;-48
2022/09/11 05:03:07;;;;;;;29.35;18.10;;;;;;;;;;4972835;28;20162;-50
2022/09/11 05:05:34;;;;;;;31.70;18.20;;;;;;;;;;4975564;28;20031;-50
2022/09/11 05:08:02;;;;;;;31.65;18.00;;;;;;;;;;4974546;28;20078;-50
2022/09/11 05:10:29;;;;;;;26.35;16.02;;;;;;;;;;4972831;28;20035;-50
2022/09/11 05:12:56;;;;;;;22.75;15.70;;;;;;;;;;4975119;28;20401;-50
2022/09/11 05:15:23;;;;;;;28.70;16.35;;;;;;;;;;4975204;28;20023;-49
2022/09/11 05:17:50;;;;;;;30.10;15.70;;;;;;;;;;4975527;28;20037;-49
2022/09/11 05:20:17;;;;;;;24.38;15.27;;;;;;;;;;4975421;28;20432;-50
2022/09/11 05:22:45;;;;;;;27.50;15.63;;;;;;;;;;4974352;28;20054;-47
2022/09/11 05:25:12;;;;;;;23.98;14.25;;;;;;;;;;4974895;28;20438;-49
2022/09/11 05:27:39;;;;;;;25.15;13.57;;;;;;;;;;4975268;28;20034;-54
2022/09/11 05:30:07;;;;;;;24.63;14.20;;;;;;;;;;4972608;28;20034;-49
2022/09/11 05:32:34;;;;;;;21.38;13.95;;;;;;;;;;4975059;28;20039;-52
2022/09/11 05:35:01;;;;;;;21.00;13.30;;;;;;;;;;4974114;28;20062;-48
2022/09/11 05:40:25;;;;;;;21.23;12.55;;;;;;;;;;4946830;28;20062;-46
2022/09/11 05:42:52;;;;;;;20.80;11.57;;;;;;;;;;4956906;29;20388;-45
2022/09/11 05:45:21;;;;;;;22.77;12.02;;;;;;;;;;4956448;29;20054;-44
2022/09/11 05:47:48;;;;;;;17.98;10.98;;;;;;;;;;4956255;29;20039;-44
2022/09/11 05:50:15;;;;;;;19.35;11.10;;;;;;;;;;4956606;29;20082;-44
2022/09/11 05:52:42;;;;;;;18.95;11.55;;;;;;;;;;4956562;29;20393;-45
2022/09/11 05:55:09;;;;;;;16.50;9.95;;;;;;;;;;4956571;29;20019;-45
2022/09/11 05:57:36;;;;;;;19.08;10.45;;;;;;;;;;4954981;28;20027;-45
2022/09/11 06:00:04;;;;;;;15.98;10.05;;;;;;;;;;4955917;29;20027;-47
2022/09/11 06:02:31;;;;;;;18.08;10.20;;;;;;;;;;4951300;28;20094;-44
2022/09/11 06:04:58;;;;;;;15.10;10.05;;;;;;;;;;4956362;29;20027;-45
2022/09/11 06:07:25;;;;;;;19.73;9.23;;;;;;;;;;4956491;29;20027;-49
2022/09/11 06:09:52;;;;;;;19.80;8.82;;;;;;;;;;4956186;29;20117;-45
2022/09/11 06:12:19;;;;;;;17.83;8.93;;;;;;;;;;4956160;29;20028;-47
2022/09/11 06:14:46;;;;;;;15.55;8.60;;;;;;;;;;4953748;28;20059;-45
2022/09/11 06:17:13;;;;;;;14.93;7.65;;;;;;;;;;4954950;29;20094;-46
2022/09/11 06:19:40;;;;;;;12.98;7.80;;;;;;;;;;4955952;29;20035;-45
2022/09/11 06:22:07;;;;;;;13.15;7.70;;;;;;;;;;4955765;29;20578;-46
2022/09/11 06:24:34;;;;;;;15.32;7.97;;;;;;;;;;4956039;29;20054;-45
2022/09/11 06:27:01;;;;;;;11.98;6.70;;;;;;;;;;4956014;29;20078;-44
2022/09/11 06:29:30;;;;;;;11.15;7.00;;;;;;;;;;4955816;29;20039;-47
2022/09/11 06:31:56;;;;;;;13.98;7.07;;;;;;;;;;4955564;29;20063;-44
2022/09/11 06:34:23;;;;;;;10.65;6.78;;;;;;;;;;4954656;28;20038;-44
2022/09/11 06:36:50;;;;;;;13.25;7.40;;;;;;;;;;4955703;29;20054;-44
2022/09/11 06:39:21;;;;;;;16.77;6.82;;;;;;;;;;4955540;29;20567;-47
2022/09/11 06:41:49;;;;;;;11.48;6.10;;;;;;;;;;4955438;29;20082;-45
2022/09/11 06:44:16;;;;;;;11.38;6.47;;;;;;;;;;4955620;29;20038;-45
2022/09/11 06:46:44;;;;;;;12.27;5.63;;;;;;;;;;4954822;28;20393;-45
2022/09/11 06:49:11;;;;;;;11.45;6.25;;;;;;;;;;4953996;28;20031;-45
2022/09/11 06:51:38;;;;;;;10.85;6.55;;;;;;;;;;4955492;29;20027;-45
2022/09/11 06:54:06;;;;;;;10.70;5.78;;;;;;;;;;4955481;29;20031;-46
2022/09/11 06:56:33;;;;;;;10.52;5.70;;;;;;;;;;4955423;29;20024;-46
2022/09/11 06:59:00;;;;;;;10.02;5.72;;;;;;;;;;4955131;29;20055;-44
2022/09/11 07:01:30;;;;;;;10.82;5.50;;;;;;;;;;4955109;29;20038;-46
2022/09/11 07:03:57;;;;;;;7.65;5.50;;;;;;;;;;4936186;29;20566;-45
2022/09/11 07:06:25;;;;;;;12.00;5.43;;;;;;;;;;4955138;29;20031;-46
2022/09/11 07:09:01;;;;;;;10.07;5.32;;;;;;;;;;4954785;29;20434;-48
2022/09/11 07:11:31;;;;;;;8.48;5.20;;;;;;;;;;4954377;29;20477;-46
2022/09/11 07:13:58;;;;;;;9.63;4.90;;;;;;;;;;4954915;29;20141;-43
2022/09/11 07:16:25;;;;;;;10.68;4.97;;;;;;;;;;4955107;29;20022;-44
2022/09/11 07:18:52;;;;;;;8.57;5.40;;;;;;;;;;4955039;29;20027;-44
2022/09/11 07:21:24;;;;;;;7.82;4.85;;;;;;;;;;4954958;29;20066;-45
2022/09/11 07:23:53;;;;;;;11.00;5.63;;;;;;;;;;4955045;29;20054;-45
2022/09/11 07:26:21;;;;;;;10.10;5.10;;;;;;;;;;4954936;29;20107;-45
2022/09/11 07:28:50;;;;;;;10.05;4.93;;;;;;;;;;4953217;28;20065;-45
2022/09/11 07:31:18;;;;;;;7.60;4.97;;;;;;;;;;4954850;29;20031;-45
2022/09/11 07:33:49;;;;;;;11.18;5.15;;;;;;;;;;4954854;29;20059;-46
2022/09/11 07:36:20;;;;;;;7.82;4.35;;;;;;;;;;4954919;29;20027;-46
2022/09/11 07:38:48;;;;;;;8.90;5.10;;;;;;;;;;4954666;29;20050;-44
2022/09/11 07:41:15;;;;;;;11.93;4.95;;;;;;;;;;4954907;29;20027;-44
2022/09/11 07:43:49;;;;;;;11.45;5.05;;;;;;;;;;4954675;29;20055;-44
2022/09/11 07:46:16;;;;;;;9.85;4.53;;;;;;;;;;4933023;29;20035;-44
2022/09/11 07:48:43;;;;;;;8.45;4.80;;;;;;;;;;4935538;29;20070;-45
2022/09/11 07:51:11;;;;;;;7.30;4.40;;;;;;;;;;4935349;29;20047;-45
2022/09/11 07:53:43;;;;;;;8.18;5.03;;;;;;;;;;4935504;29;20038;-45
2022/09/11 07:56:19;;;;;;;9.88;4.55;;;;;;;;;;4935346;29;20063;-46
2022/09/11 07:58:46;;;;;;;9.70;4.90;;;;;;;;;;4934058;29;20051;-45
2022/09/11 08:01:15;;;;;;;11.23;4.70;;;;;;;;;;4935393;29;20024;-45
2022/09/11 08:03:42;;;;;;;9.13;5.07;;;;;;;;;;4948145;28;20031;-46
2022/09/11 08:06:12;;;;;;;9.93;4.97;;;;;;;;;;4954434;29;20059;-44
2022/09/11 08:08:40;;;;;;;7.78;4.72;;;;;;;;;;4954322;29;20061;-46
2022/09/11 08:11:12;;;;;;;8.98;4.70;;;;;;;;;;4954376;29;20023;-45
2022/09/11 08:13:39;;;;;;;10.32;4.63;;;;;;;;;;4954382;29;20548;-45
2022/09/11 08:16:06;;;;;;;10.23;5.00;;;;;;;;;;4954434;29;20540;-47
2022/09/11 08:18:36;;;;;;;12.75;4.85;;;;;;;;;;4952994;28;20500;-44
2022/09/11 08:21:05;;;;;;;8.07;4.30;;;;;;;;;;4954394;29;20367;-44
2022/09/11 08:23:32;;;;;;;11.63;4.93;;;;;;;;;;4954484;29;20545;-44
2022/09/11 08:26:05;;;;;;;6.90;4.13;;;;;;;;;;4954270;29;20099;-45
2022/09/11 08:28:33;;;;;;;8.50;4.50;;;;;;;;;;4954107;29;20031;-44
2022/09/11 08:31:01;;;;;;;9.10;4.20;;;;;;;;;;4954292;29;20794;-45
2022/09/11 08:33:28;;;;;;;7.43;4.40;;;;;;;;;;4954055;29;20035;-43
2022/09/11 08:35:56;;;;;;;8.40;4.30;;;;;;;;;;4953004;28;20493;-47
2022/09/11 08:38:23;;;;;;;8.63;4.28;;;;;;;;;;4953846;29;20058;-44
2022/09/11 08:40:50;;;;;;;11.93;4.07;;;;;;;;;;4954115;29;20074;-45
2022/09/11 08:43:23;;;;;;;7.82;3.90;;;;;;;;;;4954219;29;20032;-44
2022/09/11 08:45:50;;;;;;;11.75;3.85;;;;;;;;;;4954207;29;20485;-46
2022/09/11 08:48:20;;;;;;;8.82;4.35;;;;;;;;;;4953949;29;20026;-45
2022/09/11 08:50:48;;;;;;;10.77;4.07;;;;;;;;;;4954005;29;20397;-44
2022/09/11 08:53:18;;;;;;;8.48;3.75;;;;;;;;;;4952804;29;20069;-44
2022/09/11 08:55:45;;;;;;;7.30;3.90;;;;;;;;;;4954127;29;20019;-45
2022/09/11 08:58:15;;;;;;;6.68;3.95;;;;;;;;;;4953584;29;20027;-47
2022/09/11 09:01:05;;;;;;;6.53;3.70;;;;;;;;;;4954078;29;20028;-46
2022/09/11 09:03:35;;;;;;;7.75;3.40;;;;;;;;;;4918728;29;20118;-45
2022/09/11 09:06:15;;;;;;;7.40;3.50;;;;;;;;;;4954048;29;20032;-44
2022/09/11 09:09:02;;;;;;;6.55;3.13;;;;;;;;;;4954496;28;20397;-45
2022/09/11 09:11:48;;;;;;;9.48;3.50;;;;;;;;;;4955886;28;20538;-46
2022/09/11 09:14:23;;;;;;;7.32;3.10;;;;;;;;;;4957357;29;20034;-45
2022/09/11 09:16:55;;;;;;;7.72;3.15;;;;;;;;;;4957200;29;20031;-46
2022/09/11 09:19:29;;;;;;;8.20;3.03;;;;;;;;;;4939984;29;20019;-45
2022/09/11 09:21:58;;;;;;;7.38;3.20;;;;;;;;;;4957372;29;20023;-46
2022/09/11 09:24:27;;;;;;;7.85;3.17;;;;;;;;;;4957160;29;20118;-45
2022/09/11 09:26:56;;;;;;;5.93;2.80;;;;;;;;;;4954821;29;20050;-45
2022/09/11 09:29:24;;;;;;;6.28;2.65;;;;;;;;;;4957117;29;20043;-43
2022/09/11 09:31:53;;;;;;;6.60;3.08;;;;;;;;;;4957145;29;20030;-46
2022/09/11 09:34:21;;;;;;;7.70;2.97;;;;;;;;;;4939676;29;20035;-44
2022/09/11 09:36:55;;;;;;;5.88;2.65;;;;;;;;;;4957031;29;20051;-45
2022/09/11 09:39:22;;;;;;;7.80;2.92;;;;;;;;;;4956693;29;20059;-44
2022/09/11 09:42:02;;;;;;;6.40;3.17;;;;;;;;;;4956691;29;20059;-46
2022/09/11 09:44:40;;;;;;;7.38;3.22;;;;;;;;;;4956880;29;20035;-44
2022/09/11 09:47:13;;;;;;;7.65;2.90;;;;;;;;;;4956884;29;20043;-45
2022/09/11 09:49:42;;;;;;;5.22;2.53;;;;;;;;;;4956755;29;20135;-46
2022/09/11 09:52:19;;;;;;;5.03;2.63;;;;;;;;;;4956419;29;20028;-45
2022/09/11 09:54:53;;;;;;;9.52;2.47;;;;;;;;;;4956735;29;20023;-43
2022/09/11 09:57:20;;;;;;;4.53;2.40;;;;;;;;;;4956532;29;20434;-46
2022/09/11 10:00:00;;;;;;;5.10;2.13;;;;;;;;;;4955351;28;20034;-44
2022/09/11 10:02:47;;;;;;;5.00;2.05;;;;;;;;;;4956541;29;20393;-44
2022/09/11 10:05:19;;;;;;;3.28;1.80;;;;;;;;;;4956643;29;20030;-45
2022/09/11 10:07:50;;;;;;;5.43;2.50;;;;;;;;;;4939000;29;20027;-45
2022/09/11 10:10:30;;;;;;;5.63;2.20;;;;;;;;;;4956372;29;20045;-44
2022/09/11 10:12:59;;;;;;;5.38;2.25;;;;;;;;;;4955996;29;20039;-44
2022/09/11 10:15:26;;;;;;;4.00;2.05;;;;;;;;;;4934700;29;20167;-46
2022/09/11 10:17:54;;;;;;;5.82;2.13;;;;;;;;;;4936919;29;20191;-44
2022/09/11 10:20:30;;;;;;;4.95;1.90;;;;;;;;;;4935851;29;20572;-45
2022/09/11 10:23:16;;;;;;;6.32;2.40;;;;;;;;;;4936929;29;20071;-45
2022/09/11 10:25:48;;;;;;;5.38;2.08;;;;;;;;;;4937033;29;20032;-44
2022/09/11 10:28:18;;;;;;;6.25;2.42;;;;;;;;;;4936804;29;20028;-45
2022/09/11 10:30:45;;;;;;;4.15;1.80;;;;;;;;;;4944931;28;20541;-44
2022/09/11 10:33:25;;;;;;;5.55;1.60;;;;;;;;;;4955889;29;20110;-44
2022/09/11 10:35:57;;;;;;;6.80;2.05;;;;;;;;;;4956197;29;20373;-44
2022/09/11 10:38:29;;;;;;;5.30;2.03;;;;;;;;;;4955764;29;20509;-45
2022/09/11 10:40:57;;;;;;;3.65;1.95;;;;;;;;;;4955813;29;20034;-45
2022/09/11 10:43:26;;;;;;;4.70;1.73;;;;;;;;;;4955751;29;20039;-44
2022/09/11 10:46:20;;;;;;;4.88;1.80;;;;;;;;;;4955590;29;20016;-45
2022/09/11 10:48:55;;;;;;;5.50;1.83;;;;;;;;;;4954400;28;20063;-45
2022/09/11 10:51:23;;;;;;;4.30;1.90;;;;;;;;;;4955597;29;20020;-45
2022/09/11 10:54:05;;;;;;;5.85;1.80;;;;;;;;;;4955480;28;20039;-45
2022/09/11 10:56:34;;;;;;;5.50;1.83;;;;;;;;;;4955553;29;20490;-45
2022/09/11 10:59:04;;;;;;;6.65;1.95;;;;;;;;;;4955500;29;20027;-44
2022/09/11 11:01:31;;;;;;;4.15;1.70;;;;;;;;;;4954648;29;20366;-44
2022/09/11 11:03:58;;;;;;;4.07;1.80;;;;;;;;;;4953524;28;20039;-44
2022/09/11 11:06:35;;;;;;;3.65;1.73;;;;;;;;;;4954558;29;20549;-44
2022/09/11 11:09:14;;;;;;;5.57;1.67;;;;;;;;;;4954373;29;20477;-44
2022/09/11 11:11:50;;;;;;;5.65;1.90;;;;;;;;;;4955108;29;20022;-45
2022/09/11 11:14:26;;;;;;;4.78;1.45;;;;;;;;;;4955089;29;20035;-44
2022/09/11 11:17:04;;;;;;;3.83;1.55;;;;;;;;;;4955045;29;20102;-45
2022/09/11 11:19:41;;;;;;;3.28;1.30;;;;;;;;;;4953856;28;20035;-44
2022/09/11 11:22:08;;;;;;;7.38;1.67;;;;;;;;;;4954991;29;20031;-44
2022/09/11 11:24:45;;;;;;;6.05;1.65;;;;;;;;;;4954964;29;20031;-45
2022/09/11 11:27:12;;;;;;;4.75;1.67;;;;;;;;;;4954821;29;20106;-44
2022/09/11 11:30:03;;;;;;;4.60;1.52;;;;;;;;;;4954781;29;20027;-45
2022/09/11 11:32:37;;;;;;;4.13;1.50;;;;;;;;;;4954792;28;20186;-45
2022/09/11 11:35:25;;;;;;;6.70;2.00;;;;;;;;;;4952947;29;20028;-44
2022/09/11 11:38:13;;;;;;;6.05;1.70;;;;;;;;;;4954502;29;20023;-45
2022/09/11 11:40:42;;;;;;;7.63;1.67;;;;;;;;;;4954853;29;20023;-44
2022/09/11 11:43:11;;;;;;;6.78;1.83;;;;;;;;;;4954874;29;20031;-44
2022/09/11 11:45:54;;;;;;;6.75;1.60;;;;;;;;;;4954685;29;20023;-44
2022/09/11 11:48:28;;;;;;;4.43;1.58;;;;;;;;;;4954488;29;20035;-44
2022/09/11 11:50:57;;;;;;;3.15;1.60;;;;;;;;;;4953459;28;20038;-45
2022/09/11 11:53:37;;;;;;;6.10;1.83;;;;;;;;;;4954506;29;20035;-44
2022/09/11 11:56:22;;;;;;;4.43;1.75;;;;;;;;;;4954027;29;20023;-44
2022/09/11 11:59:02;;;;;;;4.32;1.55;;;;;;;;;;4954531;29;20051;-45
2022/09/11 12:01:35;;;;;;;8.13;1.85;;;;;;;;;;4954492;29;20562;-46
2022/09/11 12:04:02;;;;;;;8.10;2.00;;;;;;;;;;4954453;29;20477;-46
2022/09/11 12:06:30;;;;;;;8.20;2.08;;;;;;;;;;4954284;28;20024;-44
2022/09/11 12:08:57;;;;;;;7.18;2.05;;;;;;;;;;4960010;28;20047;-44
2022/09/11 12:11:29;;;;;;;12.00;1.83;;;;;;;;;;4963046;28;20401;-47
2022/09/11 12:13:57;;;;;;;7.07;2.20;;;;;;;;;;4962605;28;20047;-46
2022/09/11 12:16:35;;;;;;;5.45;2.00;;;;;;;;;;4964886;28;20480;-46
2022/09/11 12:19:24;;;;;;;10.32;2.10;;;;;;;;;;4960352;28;20027;-48
2022/09/11 12:21:53;;;;;;;9.40;2.30;;;;;;;;;;4962649;28;20114;-47
2022/09/11 12:24:23;;;;;;;6.47;1.98;;;;;;;;;;4958361;28;20373;-46
2022/09/11 12:27:08;;;;;;;8.20;2.10;;;;;;;;;;4962365;28;20027;-45
2022/09/11 12:29:52;;;;;;;7.25;2.28;;;;;;;;;;4963782;28;20030;-46
2022/09/11 12:32:23;;;;;;;8.88;2.38;;;;;;;;;;4959630;28;20047;-46
2022/09/11 12:35:10;;;;;;;12.23;2.35;;;;;;;;;;4958434;28;20035;-48
2022/09/11 12:37:38;;;;;;;6.93;2.55;;;;;;;;;;4964028;28;20094;-46
2022/09/11 12:40:08;;;;;;;12.38;2.42;;;;;;;;;;4959292;28;20086;-48
2022/09/11 12:42:35;;;;;;;9.40;2.00;;;;;;;;;;4962148;28;20040;-46
2022/09/11 12:45:03;;;;;;;8.65;2.28;;;;;;;;;;4961662;28;20031;-48
2022/09/11 12:47:30;;;;;;;13.25;2.78;;;;;;;;;;4957688;29;20023;-47
2022/09/11 12:49:56;;;;;;;14.18;2.08;;;;;;;;;;4957462;29;20493;-47
2022/09/11 12:52:30;;;;;;;10.30;2.40;;;;;;;;;;4956838;28;20031;-44
2022/09/11 12:55:01;;;;;;;11.35;2.50;;;;;;;;;;4976932;28;20070;-44
2022/09/11 12:57:34;;;;;;;16.00;2.80;;;;;;;;;;4976860;28;20054;-46
2022/09/11 13:00:03;;;;;;;16.27;2.92;;;;;;;;;;4974145;28;20027;-53
2022/09/11 13:02:40;;;;;;;13.55;2.22;;;;;;;;;;4954687;28;20386;-54
2022/09/11 13:05:19;;;;;;;12.82;3.28;;;;;;;;;;4963604;28;20043;-48
2022/09/11 13:07:49;;;;;;;16.90;2.38;;;;;;;;;;4958005;28;20381;-47
2022/09/11 13:10:42;;;;;;;16.05;2.75;;;;;;;;;;4961630;28;20062;-53
2022/09/11 13:13:28;;;;;;;24.55;3.20;;;;;;;;;;4934878;29;20044;-47
2022/09/11 13:15:57;;;;;;;13.15;3.05;;;;;;;;;;4946146;28;20024;-46
2022/09/11 13:18:25;;;;;;;13.32;3.13;;;;;;;;;;4960586;28;20117;-48
2022/09/11 13:20:57;;;;;;;16.02;3.55;;;;;;;;;;4967080;28;20023;-47
2022/09/11 13:23:25;;;;;;;18.98;3.67;;;;;;;;;;4964317;28;20118;-49
2022/09/11 13:25:54;;;;;;;18.02;3.55;;;;;;;;;;4976249;28;20045;-46
2022/09/11 13:28:21;;;;;;;16.92;4.03;;;;;;;;;;4960016;28;20031;-46
2022/09/11 13:30:53;;;;;;;17.95;4.22;;;;;;;;;;4957125;29;20489;-48
2022/09/11 13:33:23;;;;;;;16.23;4.22;;;;;;;;;;4956281;29;20043;-46
2022/09/11 13:35:50;;;;;;;19.60;4.63;;;;;;;;;;4956927;29;20086;-47
2022/09/11 13:38:43;;;;;;;16.83;4.43;;;;;;;;;;4955527;28;20063;-50
2022/09/11 13:41:15;;;;;;;16.90;4.75;;;;;;;;;;4949004;29;20043;-47
2022/09/11 13:43:50;;;;;;;26.92;5.10;;;;;;;;;;4952476;29;20024;-44
2022/09/11 13:46:17;;;;;;;20.55;4.95;;;;;;;;;;4955380;29;20189;-48
2022/09/11 13:48:44;;;;;;;24.45;5.05;;;;;;;;;;4956085;29;20110;-52
2022/09/11 13:51:13;;;;;;;23.38;5.00;;;;;;;;;;4956292;29;20070;-49
2022/09/11 13:53:41;;;;;;;28.55;4.57;;;;;;;;;;4956358;28;20129;-54
2022/09/11 13:56:37;;;;;;;24.13;4.82;;;;;;;;;;4955307;28;20027;-47
2022/09/11 13:59:22;;;;;;;20.50;4.43;;;;;;;;;;4954432;28;20129;-50
2022/09/11 14:01:59;;;;;;;28.50;4.80;;;;;;;;;;4954617;29;20031;-52
2022/09/11 14:04:27;;;;;;;25.55;5.75;;;;;;;;;;4954756;29;20086;-49
2022/09/11 14:06:54;;;;;;;21.40;4.72;;;;;;;;;;4955097;29;20063;-47
2022/09/11 14:09:22;;;;;;;43.65;5.18;;;;;;;;;;4955902;28;20071;-44
2022/09/11 14:11:49;;;;;;;26.33;5.10;;;;;;;;;;4960388;28;20043;-48
2022/09/11 14:14:22;;;;;;;24.90;5.18;;;;;;;;;;4962919;28;20070;-47
2022/09/11 14:16:56;;;;;;;25.80;5.15;;;;;;;;;;4963869;28;20027;-49
2022/09/11 14:19:28;;;;;;;28.42;5.40;;;;;;;;;;4965173;28;20085;-46
2022/09/11 14:21:55;;;;;;;29.33;5.60;;;;;;;;;;4966332;28;20041;-43
2022/09/11 14:24:37;;;;;;;30.42;5.07;;;;;;;;;;4967624;28;20023;-48
2022/09/11 14:27:22;;;;;;;32.67;6.20;;;;;;;;;;4968647;28;20037;-46
2022/09/11 14:29:53;;;;;;;29.10;5.60;;;;;;;;;;4959923;28;20417;-50
2022/09/11 14:32:35;;;;;;;41.40;6.28;;;;;;;;;;4967075;28;20437;-48
2022/09/11 14:35:05;;;;;;;27.53;5.70;;;;;;;;;;4950054;28;20066;-52
2022/09/11 14:37:33;;;;;;;27.70;6.25;;;;;;;;;;4951740;28;20279;-49
2022/09/11 14:40:07;;;;;;;30.80;6.07;;;;;;;;;;4959966;28;20074;-52
2022/09/11 14:42:36;;;;;;;39.42;6.93;;;;;;;;;;4956627;28;20118;-50
2022/09/11 14:45:10;;;;;;;33.80;5.90;;;;;;;;;;4959320;28;20023;-46
2022/09/11 14:47:37;;;;;;;37.35;7.07;;;;;;;;;;4956357;28;20035;-48
2022/09/11 14:50:05;;;;;;;33.70;5.93;;;;;;;;;;4957353;28;20061;-58
2022/09/11 14:52:36;;;;;;;26.25;5.90;;;;;;;;;;4958414;28;20486;-47
2022/09/11 14:55:03;;;;;;;32.60;5.65;;;;;;;;;;4961612;28;20063;-57